Time;durP1;ratioP1;P1;durP2;ratioP2;P2;SDS_P1;SDS_P2;PMS_P1;PMS_P2;Temp;Humidity;BMP_temperature;BMP_pressure;BME280_temperature;BME280_humidity;BME280_pressure;Samples;Min_cycle;Max_cycle;Signal;HPM_P1;HPM_P2
2022/07/25 00:01:44;;;;;;;3.35;2.50;;;24.20;48.90;;;;;;4992913;28;20030;-68
2022/07/25 00:04:11;;;;;;;6.20;2.47;;;24.20;49.40;;;;;;5008118;28;20101;-67
2022/07/25 00:06:38;;;;;;;3.78;2.38;;;24.20;49.80;;;;;;4991567;28;20030;-67
2022/07/25 00:09:04;;;;;;;4.00;2.20;;;24.20;49.70;;;;;;4992791;28;20034;-67
2022/07/25 00:11:29;;;;;;;5.40;2.35;;;24.20;49.70;;;;;;4992815;28;20110;-68
2022/07/25 00:13:55;;;;;;;5.60;2.70;;;24.20;49.20;;;;;;4991886;28;20303;-67
2022/07/25 00:16:21;;;;;;;4.97;2.50;;;24.20;49.50;;;;;;4992410;28;20030;-67
2022/07/25 00:18:47;;;;;;;6.10;2.60;;;24.20;49.30;;;;;;4992699;28;20034;-68
2022/07/25 00:21:13;;;;;;;6.43;2.45;;;24.20;49.00;;;;;;5007867;28;20026;-68
2022/07/25 00:23:39;;;;;;;6.55;2.50;;;24.20;48.90;;;;;;5007864;28;20034;-67
2022/07/25 00:26:05;;;;;;;4.80;2.17;;;24.20;48.90;;;;;;4992542;28;20395;-68
2022/07/25 00:28:31;;;;;;;3.60;2.10;;;24.20;48.40;;;;;;4992836;28;20037;-68
2022/07/25 00:30:57;;;;;;;4.22;2.42;;;24.20;49.90;;;;;;4991385;28;20026;-68
2022/07/25 00:33:23;;;;;;;5.13;2.35;;;24.20;49.50;;;;;;5007572;28;20049;-68
2022/07/25 00:35:49;;;;;;;4.95;2.30;;;24.20;49.60;;;;;;5007406;28;20097;-68
2022/07/25 00:38:14;;;;;;;4.05;2.55;;;24.10;49.90;;;;;;4991572;28;20490;-68
2022/07/25 00:40:40;;;;;;;7.05;2.60;;;24.20;49.70;;;;;;4992738;28;20042;-68
2022/07/25 00:43:06;;;;;;;5.72;2.15;;;24.20;49.80;;;;;;4992430;28;20398;-68
2022/07/25 00:45:32;;;;;;;5.05;2.53;;;24.10;49.60;;;;;;4992068;28;20035;-68
2022/07/25 00:47:58;;;;;;;6.05;2.22;;;24.10;50.00;;;;;;4991371;28;20041;-68
2022/07/25 00:50:24;;;;;;;4.10;2.10;;;24.10;49.90;;;;;;4992359;28;20030;-68
2022/07/25 00:52:50;;;;;;;4.38;2.00;;;24.10;49.70;;;;;;5011532;28;20032;-68
2022/07/25 00:55:16;;;;;;;4.28;2.55;;;24.10;49.70;;;;;;4994898;28;20038;-68
2022/07/25 00:57:42;;;;;;;5.40;2.33;;;24.10;49.80;;;;;;4996465;28;20026;-67
2022/07/25 01:00:12;;;;;;;4.38;2.33;;;24.10;50.30;;;;;;4996232;28;20442;-67
2022/07/25 01:02:39;;;;;;;4.15;2.50;;;24.10;48.80;;;;;;4978993;28;20088;-68
2022/07/25 01:05:06;;;;;;;6.72;2.10;;;24.10;49.80;;;;;;5011287;28;20097;-68
2022/07/25 01:07:32;;;;;;;3.92;2.10;;;24.10;49.30;;;;;;4996064;28;20035;-68
2022/07/25 01:09:58;;;;;;;2.95;1.83;;;24.10;49.50;;;;;;4996521;28;20030;-67
2022/07/25 01:12:24;;;;;;;4.13;1.95;;;24.10;49.60;;;;;;4994734;28;20137;-68
2022/07/25 01:14:50;;;;;;;4.82;2.00;;;24.10;49.20;;;;;;4996057;28;20520;-68
2022/07/25 01:17:16;;;;;;;4.78;2.20;;;24.10;49.20;;;;;;4995692;28;20479;-67
2022/07/25 01:19:42;;;;;;;3.63;2.03;;;24.10;48.90;;;;;;4995037;28;20034;-67
2022/07/25 01:22:08;;;;;;;3.22;2.20;;;24.10;49.30;;;;;;4994928;28;20093;-67
2022/07/25 01:24:34;;;;;;;4.05;2.10;;;24.10;49.40;;;;;;4995881;28;20041;-67
2022/07/25 01:27:01;;;;;;;3.38;2.00;;;24.10;50.50;;;;;;4995448;28;20117;-67
2022/07/25 01:29:27;;;;;;;2.95;2.05;;;24.10;49.40;;;;;;5010941;28;20045;-67
2022/07/25 01:31:53;;;;;;;5.05;1.98;;;24.10;49.20;;;;;;4995632;28;20034;-67
2022/07/25 01:34:19;;;;;;;3.92;1.98;;;24.00;49.30;;;;;;4995688;28;20049;-68
2022/07/25 01:36:45;;;;;;;2.95;1.83;;;24.10;48.50;;;;;;4995360;28;20030;-68
2022/07/25 01:39:11;;;;;;;4.10;1.83;;;24.00;49.20;;;;;;4994529;28;20045;-68
2022/07/25 01:41:37;;;;;;;4.03;2.20;;;24.00;49.00;;;;;;5010829;28;20454;-68
2022/07/25 01:44:03;;;;;;;6.47;2.90;;;24.00;48.30;;;;;;4994407;28;20085;-67
2022/07/25 01:46:29;;;;;;;4.22;2.35;;;24.00;47.70;;;;;;4994124;28;20037;-68
2022/07/25 01:48:55;;;;;;;7.95;3.25;;;24.00;48.00;;;;;;4995380;28;20030;-67
2022/07/25 01:51:20;;;;;;;5.00;3.25;;;24.00;48.60;;;;;;4994327;28;20034;-67
2022/07/25 01:53:47;;;;;;;4.78;2.80;;;24.00;48.10;;;;;;4994167;28;20533;-68
2022/07/25 01:56:13;;;;;;;5.50;2.92;;;24.00;47.70;;;;;;4977700;28;20061;-67
2022/07/25 01:58:38;;;;;;;5.20;2.75;;;24.00;47.60;;;;;;4994167;28;20448;-67
2022/07/25 02:01:04;;;;;;;4.18;2.50;;;23.90;47.70;;;;;;5010401;28;20026;-68
2022/07/25 02:03:30;;;;;;;5.18;2.60;;;24.00;47.90;;;;;;4995164;28;20101;-68
2022/07/25 02:06:06;;;;;;;5.88;2.80;;;24.00;48.00;;;;;;4993651;28;20023;-67
2022/07/25 02:08:33;;;;;;;5.82;2.22;;;24.00;48.00;;;;;;4995139;28;20455;-67
2022/07/25 02:10:59;;;;;;;5.28;2.60;;;24.00;47.30;;;;;;4994963;28;20479;-67
2022/07/25 02:13:25;;;;;;;5.68;2.17;;;23.90;48.10;;;;;;4995019;28;20029;-67
2022/07/25 02:15:51;;;;;;;4.20;2.10;;;23.90;47.90;;;;;;4994632;28;20394;-67
2022/07/25 02:18:17;;;;;;;3.25;2.10;;;23.90;47.60;;;;;;4993863;28;20053;-67
2022/07/25 02:20:43;;;;;;;3.25;1.88;;;23.90;47.40;;;;;;4994898;28;20033;-67
2022/07/25 02:23:09;;;;;;;2.83;2.10;;;23.90;47.30;;;;;;4995045;28;20297;-67
2022/07/25 02:25:36;;;;;;;3.97;2.13;;;23.90;47.20;;;;;;4993198;28;20101;-68
2022/07/25 02:28:02;;;;;;;2.53;1.80;;;23.90;47.90;;;;;;5009876;28;20041;-68
2022/07/25 02:30:28;;;;;;;3.85;1.90;;;23.90;47.10;;;;;;5009707;28;20080;-68
2022/07/25 02:32:54;;;;;;;4.07;2.10;;;23.90;47.40;;;;;;4994609;28;20030;-67
2022/07/25 02:35:20;;;;;;;3.00;1.95;;;23.90;47.60;;;;;;4993265;28;20037;-68
2022/07/25 02:37:46;;;;;;;3.63;2.00;;;23.90;47.50;;;;;;5009595;28;20029;-67
2022/07/25 02:40:12;;;;;;;6.30;2.45;;;23.90;47.50;;;;;;4994299;28;20034;-67
2022/07/25 02:42:38;;;;;;;2.50;1.70;;;23.90;47.10;;;;;;4993442;28;20129;-67
2022/07/25 02:45:04;;;;;;;3.72;1.80;;;23.90;47.90;;;;;;4994360;28;20188;-68
2022/07/25 02:47:30;;;;;;;3.67;1.85;;;23.90;47.60;;;;;;4993041;28;20026;-68
2022/07/25 02:49:56;;;;;;;3.88;1.98;;;23.90;47.90;;;;;;4993096;28;20049;-68
2022/07/25 02:52:21;;;;;;;3.42;1.92;;;23.90;47.70;;;;;;4994285;28;20471;-67
2022/07/25 02:54:48;;;;;;;3.28;2.03;;;23.90;48.00;;;;;;4994477;28;20113;-68
2022/07/25 02:57:13;;;;;;;2.28;1.60;;;23.90;48.20;;;;;;4993919;28;20025;-68
2022/07/25 02:59:39;;;;;;;3.38;2.17;;;23.90;47.50;;;;;;4994078;28;20022;-68
2022/07/25 03:02:05;;;;;;;3.92;2.17;;;23.90;47.80;;;;;;4993230;28;20041;-67
2022/07/25 03:04:31;;;;;;;2.65;1.85;;;23.90;47.30;;;;;;4993278;28;20030;-68
2022/07/25 03:06:56;;;;;;;3.60;2.05;;;23.90;47.20;;;;;;4993663;28;20500;-67
2022/07/25 03:09:22;;;;;;;2.90;2.10;;;23.90;47.00;;;;;;4993857;28;20545;-68
2022/07/25 03:11:49;;;;;;;6.55;2.28;;;23.90;47.60;;;;;;5009172;28;20035;-67
2022/07/25 03:14:15;;;;;;;2.10;1.58;;;23.90;47.20;;;;;;4993305;28;20053;-67
2022/07/25 03:16:40;;;;;;;2.65;1.70;;;23.90;47.30;;;;;;4993555;28;20027;-68
2022/07/25 03:19:09;;;;;;;3.38;1.80;;;23.90;47.50;;;;;;4993678;28;20475;-68
2022/07/25 03:21:38;;;;;;;4.50;1.90;;;23.80;47.80;;;;;;4992686;28;20034;-68
2022/07/25 03:24:04;;;;;;;5.10;2.03;;;23.80;47.00;;;;;;4993776;28;20065;-67
2022/07/25 03:26:30;;;;;;;2.95;2.03;;;23.90;47.20;;;;;;4993373;28;20030;-67
2022/07/25 03:28:55;;;;;;;4.57;1.90;;;23.80;47.10;;;;;;4993487;28;20503;-68
2022/07/25 03:31:21;;;;;;;3.83;2.05;;;23.80;47.30;;;;;;4992393;28;20034;-67
2022/07/25 03:33:47;;;;;;;3.17;1.63;;;23.80;47.10;;;;;;4993509;28;20398;-67
2022/07/25 03:36:13;;;;;;;3.33;2.22;;;23.80;46.90;;;;;;4993164;28;20057;-67
2022/07/25 03:38:38;;;;;;;4.95;1.88;;;23.80;47.10;;;;;;4993205;28;20030;-67
2022/07/25 03:41:05;;;;;;;3.25;1.70;;;23.80;47.10;;;;;;4992430;28;20042;-67
2022/07/25 03:43:30;;;;;;;2.88;1.80;;;23.80;47.30;;;;;;4992426;28;20130;-67
2022/07/25 03:45:56;;;;;;;2.70;1.58;;;23.80;46.90;;;;;;4992030;28;20499;-67
2022/07/25 03:48:22;;;;;;;3.22;1.88;;;23.80;47.20;;;;;;4991849;28;20030;-68
2022/07/25 03:50:48;;;;;;;3.88;2.20;;;23.80;47.20;;;;;;4975926;28;20026;-68
2022/07/25 03:53:14;;;;;;;5.80;2.50;;;23.80;46.90;;;;;;4993033;28;20375;-68
2022/07/25 03:55:40;;;;;;;5.90;2.75;;;23.80;46.70;;;;;;5007951;28;20030;-67
2022/07/25 03:58:06;;;;;;;6.60;3.72;;;23.80;46.90;;;;;;4992989;28;20487;-67
2022/07/25 04:00:32;;;;;;;7.25;3.72;;;23.80;47.20;;;;;;4991618;28;20582;-68
2022/07/25 04:02:57;;;;;;;7.90;3.53;;;23.80;47.10;;;;;;4991939;28;20121;-67
2022/07/25 04:05:23;;;;;;;6.15;3.08;;;23.70;46.80;;;;;;4992614;28;20030;-68
2022/07/25 04:07:49;;;;;;;8.20;2.70;;;23.70;46.90;;;;;;5008041;28;20029;-67
2022/07/25 04:10:15;;;;;;;3.65;2.38;;;23.80;46.80;;;;;;4991798;28;20074;-67
2022/07/25 04:12:41;;;;;;;4.97;2.30;;;23.70;46.90;;;;;;4992755;28;20034;-67
2022/07/25 04:15:07;;;;;;;5.65;2.30;;;23.70;46.80;;;;;;4992607;28;20093;-67
2022/07/25 04:17:33;;;;;;;6.07;2.60;;;23.70;46.80;;;;;;4992749;28;20034;-67
2022/07/25 04:19:59;;;;;;;5.55;3.47;;;23.70;46.60;;;;;;4991572;28;20042;-67
2022/07/25 04:22:25;;;;;;;6.18;3.42;;;23.80;47.50;;;;;;4992783;28;20034;-67
2022/07/25 04:24:50;;;;;;;5.93;3.20;;;23.70;47.00;;;;;;4992476;28;20022;-68
2022/07/25 04:27:16;;;;;;;4.97;2.75;;;23.70;47.10;;;;;;4990540;28;20034;-67
2022/07/25 04:29:42;;;;;;;5.20;2.90;;;23.70;46.90;;;;;;4992591;28;20172;-67
2022/07/25 04:32:08;;;;;;;5.72;2.58;;;23.80;46.90;;;;;;4991308;28;20030;-68
2022/07/25 04:34:34;;;;;;;7.90;2.78;;;23.70;46.90;;;;;;5007617;28;20458;-67
2022/07/25 04:36:59;;;;;;;6.68;3.33;;;23.80;47.10;;;;;;4992221;28;20023;-67
2022/07/25 04:39:25;;;;;;;9.15;4.22;;;23.80;47.10;;;;;;5016259;23;20045;-67
2022/07/25 04:41:51;;;;;;;8.68;4.40;;;23.80;46.80;;;;;;5030569;28;20032;-67
2022/07/25 04:44:16;;;;;;;7.03;3.40;;;23.80;47.00;;;;;;5030309;28;20251;-67
2022/07/25 04:46:42;;;;;;;6.47;3.28;;;23.80;47.00;;;;;;5031488;28;20029;-66
2022/07/25 04:49:08;;;;;;;5.10;2.95;;;23.70;46.80;;;;;;5014144;28;20465;-67
2022/07/25 04:51:34;;;;;;;5.38;3.13;;;23.80;46.80;;;;;;5031631;28;20040;-67
2022/07/25 04:54:00;;;;;;;7.03;3.85;;;23.80;47.00;;;;;;5031690;28;20060;-66
2022/07/25 04:56:25;;;;;;;8.40;4.60;;;23.80;46.90;;;;;;5031297;28;20026;-67
2022/07/25 04:58:51;;;;;;;7.57;4.55;;;23.80;47.10;;;;;;5030554;28;20068;-67
2022/07/25 05:01:17;;;;;;;10.50;4.45;;;23.80;47.00;;;;;;5031632;28;20032;-67
2022/07/25 05:03:43;;;;;;;6.80;3.50;;;23.80;47.10;;;;;;5031691;28;20030;-68
2022/07/25 05:06:08;;;;;;;6.40;3.65;;;23.80;47.20;;;;;;5031638;28;20047;-67
2022/07/25 05:08:34;;;;;;;9.18;4.30;;;23.80;47.20;;;;;;5031528;28;20389;-67
2022/07/25 05:11:00;;;;;;;7.22;3.85;;;23.80;47.30;;;;;;5031855;28;20029;-67
2022/07/25 05:13:26;;;;;;;6.47;2.83;;;23.80;47.40;;;;;;5031529;28;20397;-67
2022/07/25 05:15:51;;;;;;;4.70;2.80;;;23.80;47.10;;;;;;5031203;28;20074;-67
2022/07/25 05:18:17;;;;;;;4.65;2.58;;;23.80;47.10;;;;;;5031407;28;20024;-67
2022/07/25 05:20:43;;;;;;;6.90;3.50;;;23.80;47.10;;;;;;5031360;28;20021;-67
2022/07/25 05:23:09;;;;;;;7.22;3.55;;;23.80;47.10;;;;;;5031475;28;20028;-67
2022/07/25 05:25:34;;;;;;;10.20;3.60;;;23.80;47.40;;;;;;5031057;28;20025;-67
2022/07/25 05:28:01;;;;;;;10.25;3.30;;;23.80;47.20;;;;;;5031680;28;20047;-67
2022/07/25 05:30:28;;;;;;;6.70;3.10;;;23.80;47.20;;;;;;5030067;28;20559;-67
2022/07/25 05:32:53;;;;;;;5.07;2.65;;;23.80;47.10;;;;;;5031144;28;20160;-67
2022/07/25 05:35:19;;;;;;;8.93;3.25;;;23.80;47.10;;;;;;5029706;28;20049;-67
2022/07/25 05:37:45;;;;;;;5.78;3.00;;;23.80;47.00;;;;;;5032250;28;20523;-67
2022/07/25 05:40:12;;;;;;;6.07;2.67;;;23.80;47.20;;;;;;5034739;28;20033;-67
2022/07/25 05:42:37;;;;;;;7.20;2.70;;;23.90;47.30;;;;;;5033697;28;20425;-67
2022/07/25 05:45:04;;;;;;;5.80;2.47;;;23.90;47.10;;;;;;5034910;28;20021;-67
2022/07/25 05:47:30;;;;;;;5.68;2.95;;;23.90;47.10;;;;;;5034282;28;20029;-66
2022/07/25 05:49:55;;;;;;;5.47;2.40;;;23.90;47.50;;;;;;5034784;28;20209;-66
2022/07/25 05:52:21;;;;;;;5.55;2.70;;;23.90;47.50;;;;;;5033388;28;20492;-67
2022/07/25 05:54:47;;;;;;;8.27;3.28;;;23.90;47.30;;;;;;5034603;28;20027;-67
2022/07/25 05:57:13;;;;;;;4.78;2.38;;;23.90;47.50;;;;;;5034420;28;20021;-67
2022/07/25 05:59:39;;;;;;;4.55;2.55;;;23.90;47.70;;;;;;5034564;28;20025;-67
2022/07/25 06:02:04;;;;;;;5.25;2.75;;;23.90;47.50;;;;;;5033376;28;20029;-67
2022/07/25 06:04:30;;;;;;;5.22;2.70;;;23.90;47.70;;;;;;5034697;28;20025;-67
2022/07/25 06:06:56;;;;;;;8.10;2.85;;;24.00;47.70;;;;;;5032992;28;20116;-67
2022/07/25 06:09:22;;;;;;;6.85;3.13;;;24.00;47.60;;;;;;5034385;28;20049;-67
2022/07/25 06:11:49;;;;;;;5.55;3.05;;;24.00;47.70;;;;;;5034381;28;20035;-68
2022/07/25 06:14:15;;;;;;;5.47;3.28;;;24.00;48.00;;;;;;5034374;28;20092;-67
2022/07/25 06:16:41;;;;;;;5.45;2.88;;;24.00;48.00;;;;;;5034271;28;20034;-67
2022/07/25 06:19:07;;;;;;;8.75;3.22;;;24.00;48.00;;;;;;5034245;28;20476;-67
2022/07/25 06:21:33;;;;;;;5.88;2.70;;;24.00;48.20;;;;;;5034518;28;20026;-67
2022/07/25 06:23:59;;;;;;;6.32;2.85;;;24.10;48.20;;;;;;5034321;28;20029;-67
2022/07/25 06:26:24;;;;;;;7.28;3.33;;;24.10;48.40;;;;;;5032645;28;20037;-67
2022/07/25 06:28:50;;;;;;;6.20;3.03;;;24.10;48.50;;;;;;5034111;28;20030;-68
2022/07/25 06:31:16;;;;;;;4.90;2.72;;;24.10;48.30;;;;;;5030800;28;20021;-67
2022/07/25 06:33:42;;;;;;;6.03;2.88;;;24.20;48.30;;;;;;5032808;28;20025;-67
2022/07/25 06:36:09;;;;;;;6.28;3.40;;;24.20;48.70;;;;;;5032442;28;20100;-67
2022/07/25 06:38:35;;;;;;;5.55;3.28;;;24.20;48.90;;;;;;5033920;28;20056;-67
2022/07/25 06:41:00;;;;;;;6.78;3.60;;;24.20;48.90;;;;;;5033852;28;20041;-67
2022/07/25 06:43:26;;;;;;;5.82;3.33;;;24.20;48.90;;;;;;5032658;28;20032;-67
2022/07/25 06:45:53;;;;;;;6.45;3.80;;;24.20;49.00;;;;;;5026609;28;20363;-67
2022/07/25 06:48:19;;;;;;;5.88;3.70;;;24.20;49.00;;;;;;5013118;28;20036;-67
2022/07/25 06:50:45;;;;;;;8.23;4.28;;;24.20;49.00;;;;;;5012492;28;20445;-67
2022/07/25 06:53:11;;;;;;;7.85;4.20;;;24.30;49.30;;;;;;5012573;28;20034;-67
2022/07/25 06:55:37;;;;;;;11.48;4.43;;;24.20;49.10;;;;;;5013542;28;20025;-67
2022/07/25 06:58:02;;;;;;;9.27;4.72;;;24.30;49.20;;;;;;5013734;28;20109;-67
2022/07/25 07:00:28;;;;;;;8.35;4.50;;;24.30;49.10;;;;;;5016861;28;20021;-67
2022/07/25 07:02:57;;;;;;;6.47;4.20;;;24.30;49.20;;;;;;5033496;28;20531;-68
2022/07/25 07:05:30;;;;;;;7.47;4.15;;;24.30;49.20;;;;;;5033194;28;20482;-67
2022/07/25 07:07:56;;;;;;;6.75;3.90;;;24.30;49.30;;;;;;5033517;28;20056;-67
2022/07/25 07:10:23;;;;;;;8.48;4.57;;;24.30;49.50;;;;;;5030572;28;20029;-67
2022/07/25 07:12:49;;;;;;;6.18;3.72;;;24.40;49.50;;;;;;5032889;28;20113;-67
2022/07/25 07:15:16;;;;;;;6.47;3.97;;;24.30;49.50;;;;;;5029777;28;20033;-67
2022/07/25 07:17:42;;;;;;;10.52;4.65;;;24.40;49.60;;;;;;5013430;28;20061;-67
2022/07/25 07:20:09;;;;;;;9.60;5.10;;;24.40;49.70;;;;;;5013294;28;20482;-67
2022/07/25 07:22:46;;;;;;;7.88;4.72;;;24.40;49.80;;;;;;5013302;28;20105;-67
2022/07/25 07:25:14;;;;;;;9.30;5.03;;;24.40;49.70;;;;;;5012942;28;20022;-67
2022/07/25 07:27:40;;;;;;;10.70;5.10;;;24.40;49.70;;;;;;4995902;28;20034;-67
2022/07/25 07:30:06;;;;;;;12.25;5.18;;;24.50;49.90;;;;;;5012031;28;20506;-68
2022/07/25 07:32:32;;;;;;;8.45;5.22;;;24.50;49.90;;;;;;5032827;28;20033;-67
2022/07/25 07:34:58;;;;;;;12.00;6.07;;;24.50;50.00;;;;;;5032874;28;20033;-67
2022/07/25 07:37:24;;;;;;;9.20;5.30;;;24.50;50.10;;;;;;5013020;28;20079;-68
2022/07/25 07:39:49;;;;;;;11.20;6.20;;;24.60;50.20;;;;;;5011672;28;20041;-68
2022/07/25 07:42:15;;;;;;;9.40;5.53;;;24.50;50.20;;;;;;5030714;28;20413;-68
2022/07/25 07:44:41;;;;;;;10.20;5.65;;;24.60;50.30;;;;;;5031452;28;20620;-68
2022/07/25 07:47:07;;;;;;;11.10;5.18;;;24.60;50.40;;;;;;5032323;28;20055;-68
2022/07/25 07:49:32;;;;;;;12.57;5.15;;;24.60;50.50;;;;;;5031470;28;20045;-68
2022/07/25 07:51:58;;;;;;;8.57;5.45;;;24.70;50.70;;;;;;5031242;28;20068;-68
2022/07/25 07:57:08;;;;;;;11.38;5.72;;;24.70;50.80;;;;;;5031109;28;20436;-68
2022/07/25 07:59:34;;;;;;;10.15;5.68;;;24.70;50.80;;;;;;5031023;28;20025;-68
2022/07/25 08:02:00;;;;;;;8.95;5.28;;;24.80;51.00;;;;;;5015248;28;20030;-68
2022/07/25 08:04:25;;;;;;;9.88;5.90;;;24.80;51.00;;;;;;5011523;28;20096;-68
2022/07/25 08:06:51;;;;;;;11.38;5.65;;;24.80;51.20;;;;;;5010972;28;20482;-67
2022/07/25 08:09:17;;;;;;;10.30;5.30;;;24.80;51.20;;;;;;5012575;28;20030;-68
2022/07/25 08:11:43;;;;;;;9.02;5.80;;;24.90;51.10;;;;;;4996810;28;20026;-67
2022/07/25 08:14:08;;;;;;;8.50;5.47;;;24.80;51.10;;;;;;5002187;28;20025;-67
2022/07/25 08:16:34;;;;;;;8.57;5.53;;;24.80;51.10;;;;;;5006390;28;20017;-67
2022/07/25 08:19:00;;;;;;;8.93;5.82;;;24.90;51.30;;;;;;5021490;28;20112;-67
2022/07/25 08:21:26;;;;;;;11.63;5.97;;;24.90;51.40;;;;;;5021015;28;20022;-67
2022/07/25 08:23:52;;;;;;;10.20;6.60;;;24.90;51.40;;;;;;5021890;28;20092;-67
2022/07/25 08:26:18;;;;;;;11.63;6.75;;;25.00;51.60;;;;;;5021917;28;20022;-67
2022/07/25 08:28:43;;;;;;;13.75;6.45;;;25.00;51.60;;;;;;5020584;28;20474;-67
2022/07/25 08:31:09;;;;;;;12.02;6.32;;;25.00;52.30;;;;;;5021027;28;20032;-66
2022/07/25 08:33:35;;;;;;;9.70;6.82;;;25.00;52.00;;;;;;5019919;28;20022;-67
2022/07/25 08:36:01;;;;;;;12.77;7.03;;;25.00;52.10;;;;;;5011806;28;20053;-72
2022/07/25 08:38:28;;;;;;;15.10;6.90;;;25.00;52.10;;;;;;5011934;28;20026;-72
2022/07/25 08:40:55;;;;;;;11.43;6.40;;;25.10;52.20;;;;;;5012019;28;20034;-75
2022/07/25 08:43:21;;;;;;;9.52;6.55;;;25.10;51.90;;;;;;5012155;28;20030;-74
2022/07/25 08:45:50;;;;;;;10.82;7.03;;;25.10;52.10;;;;;;5010715;28;20081;-74
2022/07/25 08:48:18;;;;;;;10.13;6.07;;;25.00;52.20;;;;;;5012186;28;20030;-74
2022/07/25 08:50:55;;;;;;;12.68;7.28;;;25.00;52.50;;;;;;5011559;28;20112;-74
2022/07/25 08:53:22;;;;;;;15.15;6.65;;;24.90;52.60;;;;;;5011066;28;20048;-75
2022/07/25 08:55:48;;;;;;;8.70;6.05;;;24.90;52.70;;;;;;5010288;28;20117;-75
2022/07/25 08:58:15;;;;;;;11.07;6.30;;;24.80;52.80;;;;;;5011896;28;20502;-75
2022/07/25 09:00:42;;;;;;;9.57;6.00;;;24.80;52.90;;;;;;5027128;28;20034;-76
2022/07/25 09:03:08;;;;;;;9.20;6.03;;;24.80;53.10;;;;;;5026985;28;20038;-75
2022/07/25 09:05:35;;;;;;;11.20;6.57;;;24.80;53.10;;;;;;5011465;28;20061;-75
2022/07/25 09:08:13;;;;;;;11.65;6.10;;;24.70;53.10;;;;;;5010771;28;20092;-75
2022/07/25 09:10:44;;;;;;;8.43;5.78;;;24.70;53.20;;;;;;5011747;28;20029;-76
2022/07/25 09:13:15;;;;;;;11.60;6.78;;;24.70;53.30;;;;;;5013595;28;20037;-76
2022/07/25 09:15:55;;;;;;;10.85;6.38;;;24.70;53.40;;;;;;5014539;28;20034;-77
2022/07/25 09:18:23;;;;;;;9.90;6.05;;;24.70;53.70;;;;;;5015826;28;20100;-76
2022/07/25 09:20:52;;;;;;;17.25;6.15;;;24.70;53.60;;;;;;5015536;28;20018;-76
2022/07/25 09:23:37;;;;;;;9.65;6.53;;;24.80;53.80;;;;;;5014704;28;20046;-77
2022/07/25 09:26:30;;;;;;;9.70;6.97;;;24.80;53.80;;;;;;5030607;28;20026;-76
2022/07/25 09:28:55;;;;;;;8.93;6.05;;;24.80;53.80;;;;;;5024630;28;20113;-76
2022/07/25 09:31:33;;;;;;;11.25;7.03;;;24.70;53.70;;;;;;5025306;28;20033;-76
2022/07/25 09:34:00;;;;;;;10.90;6.82;;;24.70;53.70;;;;;;5026272;28;20037;-76
2022/07/25 09:36:26;;;;;;;8.90;6.28;;;24.70;53.80;;;;;;5025266;28;20068;-75
2022/07/25 09:38:53;;;;;;;9.52;6.60;;;24.70;53.90;;;;;;5024622;28;20037;-75
2022/07/25 09:41:19;;;;;;;10.95;6.57;;;24.70;54.00;;;;;;5026721;28;20030;-76
2022/07/25 09:43:45;;;;;;;12.52;7.30;;;24.70;54.00;;;;;;5024265;28;20022;-76
2022/07/25 09:46:11;;;;;;;11.93;6.53;;;24.70;54.10;;;;;;5024323;28;20026;-76
2022/07/25 09:48:43;;;;;;;10.98;6.82;;;24.70;54.10;;;;;;5022565;28;20367;-76
2022/07/25 09:51:08;;;;;;;14.05;6.53;;;24.80;54.20;;;;;;5022003;28;20386;-75
2022/07/25 09:53:34;;;;;;;10.90;6.57;;;24.70;54.10;;;;;;5023127;28;20026;-74
2022/07/25 09:56:01;;;;;;;16.70;7.80;;;24.70;54.20;;;;;;5021915;28;20033;-75
2022/07/25 09:58:28;;;;;;;12.48;7.18;;;24.80;54.20;;;;;;5023946;28;20032;-76
2022/07/25 10:01:04;;;;;;;11.00;7.43;;;24.80;54.20;;;;;;5023620;28;20026;-75
2022/07/25 10:03:50;;;;;;;11.75;6.82;;;24.80;54.20;;;;;;5017483;28;21018;-76
2022/07/25 10:06:33;;;;;;;15.15;7.43;;;24.80;54.30;;;;;;5010234;28;20044;-75
2022/07/25 10:08:59;;;;;;;13.13;7.45;;;24.80;54.40;;;;;;5009329;28;20482;-76
2022/07/25 10:11:26;;;;;;;12.40;7.05;;;24.80;54.40;;;;;;5008536;28;20033;-75
2022/07/25 10:13:53;;;;;;;10.98;7.20;;;24.80;54.50;;;;;;5010813;28;20426;-75
2022/07/25 10:16:22;;;;;;;11.88;7.35;;;24.80;54.50;;;;;;5023235;28;20025;-75
2022/07/25 10:18:56;;;;;;;11.77;6.88;;;24.80;54.60;;;;;;5024744;28;20454;-76
2022/07/25 10:21:27;;;;;;;10.88;7.22;;;24.80;54.70;;;;;;5020610;28;20029;-75
2022/07/25 10:24:02;;;;;;;13.00;7.65;;;24.80;54.70;;;;;;5021650;28;20442;-75
2022/07/25 10:26:28;;;;;;;11.88;7.93;;;24.80;54.70;;;;;;5023111;28;20037;-76
2022/07/25 10:28:55;;;;;;;12.52;7.05;;;24.80;54.80;;;;;;5023664;28;20036;-76
2022/07/25 10:31:29;;;;;;;11.13;7.10;;;24.80;54.80;;;;;;5023285;28;20018;-75
2022/07/25 10:33:57;;;;;;;12.18;7.53;;;24.80;54.80;;;;;;5021473;28;20033;-75
2022/07/25 10:36:31;;;;;;;11.02;7.63;;;24.70;54.80;;;;;;5022004;28;20028;-76
2022/07/25 10:38:59;;;;;;;10.68;7.25;;;24.70;54.80;;;;;;5004424;28;20030;-78
2022/07/25 10:41:27;;;;;;;10.95;7.55;;;24.80;55.00;;;;;;5003258;28;20022;-75
2022/07/25 10:43:56;;;;;;;12.25;7.18;;;24.70;55.00;;;;;;5015172;28;20030;-76
2022/07/25 10:46:29;;;;;;;10.52;7.65;;;24.80;55.10;;;;;;5018926;28;20076;-75
2022/07/25 10:49:01;;;;;;;12.45;7.47;;;24.80;55.10;;;;;;5021629;28;20029;-74
2022/07/25 10:51:35;;;;;;;10.88;7.63;;;24.80;55.20;;;;;;5012535;28;20018;-76
2022/07/25 10:54:21;;;;;;;11.50;7.25;;;24.70;55.20;;;;;;5022101;28;20083;-77
2022/07/25 10:56:58;;;;;;;10.10;7.32;;;24.70;55.20;;;;;;5004322;28;20120;-77
2022/07/25 10:59:31;;;;;;;11.23;6.65;;;24.80;55.30;;;;;;5012562;28;20061;-76
2022/07/25 11:01:57;;;;;;;11.80;7.25;;;24.80;55.30;;;;;;5012309;28;20029;-76
2022/07/25 11:04:23;;;;;;;24.23;9.18;;;24.80;56.20;;;;;;5012485;28;20449;-76
2022/07/25 11:06:50;;;;;;;28.83;10.45;;;24.80;61.10;;;;;;5013421;28;20077;-76
2022/07/25 11:09:17;;;;;;;32.03;10.90;;;24.80;66.20;;;;;;5012526;28;20033;-76
2022/07/25 11:11:48;;;;;;;26.30;10.30;;;24.90;68.30;;;;;;5013478;28;20022;-76
2022/07/25 11:14:22;;;;;;;21.38;9.52;;;24.90;69.60;;;;;;5013095;28;20022;-77
2022/07/25 11:16:53;;;;;;;24.67;8.77;;;24.80;66.50;;;;;;5021958;28;20022;-76
2022/07/25 11:19:25;;;;;;;19.17;8.68;;;24.80;62.60;;;;;;5025063;28;20045;-76
2022/07/25 11:21:54;;;;;;;24.63;11.13;;;24.80;61.00;;;;;;5018749;28;20036;-76
2022/07/25 11:24:21;;;;;;;19.67;9.23;;;24.80;61.60;;;;;;5027177;28;20490;-76
2022/07/25 11:26:50;;;;;;;18.35;9.98;;;24.90;59.40;;;;;;5022711;28;20048;-76
2022/07/25 11:29:21;;;;;;;20.52;9.30;;;24.80;58.80;;;;;;5023582;28;20118;-75
2022/07/25 11:31:54;;;;;;;27.35;9.60;;;24.90;58.60;;;;;;5018871;28;20077;-75
2022/07/25 11:34:29;;;;;;;19.58;10.77;;;24.90;59.60;;;;;;5020021;28;20018;-75
2022/07/25 11:36:57;;;;;;;23.67;10.48;;;24.90;59.70;;;;;;5017554;28;20030;-75
2022/07/25 11:39:29;;;;;;;21.05;9.10;;;24.90;60.00;;;;;;5012908;28;20029;-73
2022/07/25 11:41:59;;;;;;;22.42;10.23;;;24.90;59.30;;;;;;5019864;28;20034;-74
2022/07/25 11:44:46;;;;;;;21.50;9.82;;;24.90;59.20;;;;;;5018059;28;20113;-74
2022/07/25 11:47:32;;;;;;;22.63;8.93;;;24.90;59.50;;;;;;5023858;28;20125;-73
2022/07/25 11:50:00;;;;;;;14.23;6.80;;;24.90;59.40;;;;;;5032489;28;20033;-73
2022/07/25 11:52:34;;;;;;;15.38;6.97;;;24.90;59.30;;;;;;5003986;28;20485;-73
2022/07/25 11:55:07;;;;;;;18.13;8.25;;;24.90;59.70;;;;;;5020675;28;20105;-74
2022/07/25 11:57:36;;;;;;;22.38;8.55;;;24.90;59.40;;;;;;5021477;28;20018;-74
2022/07/25 12:00:08;;;;;;;13.35;5.68;;;24.90;59.40;;;;;;5021936;28;20390;-74
2022/07/25 12:02:37;;;;;;;15.52;6.93;;;24.90;59.40;;;;;;5017707;28;20041;-74
2022/07/25 12:05:09;;;;;;;12.88;6.28;;;24.80;59.30;;;;;;5018794;28;20026;-74
2022/07/25 12:07:45;;;;;;;12.82;7.32;;;24.80;59.70;;;;;;5000662;28;20056;-74
2022/07/25 12:10:20;;;;;;;12.98;6.68;;;24.80;59.50;;;;;;5016164;28;20501;-74
2022/07/25 12:12:55;;;;;;;13.98;7.25;;;24.80;59.90;;;;;;5027639;28;20564;-76
2022/07/25 12:15:22;;;;;;;14.25;8.30;;;24.80;59.30;;;;;;5031911;28;20036;-79
2022/07/25 12:17:50;;;;;;;15.52;8.75;;;25.00;58.20;;;;;;5032370;28;20029;-76
2022/07/25 12:20:19;;;;;;;14.13;8.75;;;25.20;55.70;;;;;;5021784;28;20245;-75
2022/07/25 12:22:47;;;;;;;14.82;8.65;;;25.30;54.30;;;;;;5007848;28;20029;-76
2022/07/25 12:25:13;;;;;;;10.25;8.20;;;25.50;53.60;;;;;;5012044;28;20021;-76
2022/07/25 12:27:39;;;;;;;12.98;8.48;;;25.60;53.30;;;;;;5012268;28;20034;-76
2022/07/25 12:30:09;;;;;;;12.80;8.52;;;25.70;52.50;;;;;;5012143;28;20034;-77
2022/07/25 12:32:35;;;;;;;;;;;25.80;52.30;;;;;;5009794;28;20390;-76
2022/07/25 12:35:02;;;;;;;11.90;8.35;;;25.80;52.60;;;;;;5004016;28;19996;-77
2022/07/25 12:37:28;;;;;;;13.30;8.98;;;25.70;53.50;;;;;;5010646;28;20018;-76
2022/07/25 12:39:54;;;;;;;14.13;9.25;;;25.50;53.80;;;;;;5011619;28;20443;-76
2022/07/25 12:42:20;;;;;;;14.13;8.93;;;25.40;54.50;;;;;;5011205;28;20046;-76
2022/07/25 12:44:46;;;;;;;11.85;8.75;;;25.30;54.70;;;;;;5011928;28;20095;-76
2022/07/25 12:47:11;;;;;;;12.05;8.57;;;25.20;54.60;;;;;;5011045;28;20033;-76